createdAt,value
2023-01-02T00:02:10.327Z,14.34
2023-01-02T00:04:36.965Z,14.30
2023-01-02T00:07:03.651Z,14.31
2023-01-02T00:09:30.264Z,14.38
2023-01-02T00:11:56.770Z,14.26
2023-01-02T00:14:23.377Z,14.38
2023-01-02T00:16:49.992Z,14.35
2023-01-02T00:19:16.555Z,14.30
2023-01-02T00:21:43.244Z,14.29
2023-01-02T00:24:10.092Z,14.26
2023-01-02T00:26:36.696Z,14.39
2023-01-02T00:29:03.372Z,14.37
2023-01-02T00:31:30.007Z,14.39
2023-01-02T00:33:56.686Z,14.41
2023-01-02T00:36:23.475Z,14.44
2023-01-02T00:38:50.062Z,14.35
2023-01-02T00:41:16.711Z,14.46
2023-01-02T00:43:43.653Z,14.41
2023-01-02T00:46:12.223Z,14.36
2023-01-02T00:48:39.361Z,14.30
2023-01-02T00:51:06.124Z,14.27
2023-01-02T00:53:32.646Z,14.30
2023-01-02T00:55:59.231Z,14.30
2023-01-02T00:58:25.865Z,14.28
2023-01-02T01:00:52.420Z,14.35
2023-01-02T01:03:19.433Z,14.34
2023-01-02T01:05:45.951Z,14.35
2023-01-02T01:08:12.637Z,14.38
2023-01-02T01:10:39.706Z,14.37
2023-01-02T01:13:06.628Z,14.45
2023-01-02T01:15:34.661Z,14.34
2023-01-02T01:18:01.585Z,14.42
2023-01-02T01:20:28.274Z,14.41
2023-01-02T01:22:54.752Z,14.43
2023-01-02T01:25:21.308Z,14.41
2023-01-02T01:27:47.806Z,14.33
2023-01-02T01:30:14.587Z,14.37
2023-01-02T01:32:41.092Z,14.37
2023-01-02T01:35:07.977Z,14.34
2023-01-02T01:37:34.536Z,14.41
2023-01-02T01:40:01.086Z,14.37
2023-01-02T01:42:32.998Z,14.23
2023-01-02T01:44:59.590Z,14.29
2023-01-02T01:48:02.238Z,14.31
2023-01-02T01:50:33.751Z,14.36
2023-01-02T01:53:06.919Z,14.34
2023-01-02T01:55:46.075Z,14.31
2023-01-02T01:58:17.660Z,14.32
2023-01-02T02:00:44.993Z,14.27
2023-01-02T02:03:16.665Z,14.35
2023-01-02T02:05:45.009Z,14.20
2023-01-02T02:08:35.279Z,14.14
2023-01-02T02:11:03.291Z,14.22
2023-01-02T02:13:34.155Z,14.21
2023-01-02T02:16:11.106Z,14.18
2023-01-02T02:18:59.722Z,14.15
2023-01-02T02:21:42.386Z,14.09
2023-01-02T02:24:37.274Z,14.16
2023-01-02T02:27:18.872Z,14.20
2023-01-02T02:30:08.094Z,14.25
2023-01-02T02:32:51.753Z,14.21
2023-01-02T02:35:18.180Z,14.14
2023-01-02T02:37:53.030Z,14.26
2023-01-02T02:40:23.310Z,14.11
2023-01-02T02:43:02.362Z,14.20
2023-01-02T02:45:39.141Z,14.16
2023-01-02T02:48:16.898Z,14.15
2023-01-02T02:50:56.447Z,14.17
2023-01-02T02:53:26.363Z,14.21
2023-01-02T02:55:59.556Z,14.21
2023-01-02T02:58:28.760Z,14.18
2023-01-02T03:01:08.734Z,14.14
2023-01-02T03:03:35.424Z,14.08
2023-01-02T03:06:17.333Z,14.04
2023-01-02T03:08:59.218Z,14.15
2023-01-02T03:11:42.698Z,14.16
2023-01-02T03:14:30.238Z,14.15
2023-01-02T03:17:11.540Z,14.13
2023-01-02T03:19:43.899Z,14.09
2023-01-02T03:22:22.069Z,14.01
2023-01-02T03:24:52.519Z,14.11
2023-01-02T03:27:24.746Z,14.16
2023-01-02T03:30:21.821Z,14.14
2023-01-02T03:32:48.279Z,14.12
2023-01-02T03:35:19.864Z,14.12
2023-01-02T03:37:51.602Z,14.14
2023-01-02T03:40:25.124Z,14.10
2023-01-02T03:43:16.963Z,14.19
2023-01-02T03:45:48.981Z,14.05
2023-01-02T03:48:57.255Z,14.03
2023-01-02T03:51:23.988Z,14.08
2023-01-02T03:53:51.731Z,14.00
2023-01-02T03:56:24.304Z,14.13
2023-01-02T03:59:00.172Z,14.00
2023-01-02T04:01:38.756Z,13.79
2023-01-02T04:04:14.654Z,13.97
2023-01-02T04:06:47.479Z,13.94
2023-01-02T04:09:19.733Z,14.00
2023-01-02T04:11:51.387Z,13.92
2023-01-02T04:14:23.689Z,13.97
2023-01-02T04:16:51.385Z,13.97
2023-01-02T04:19:32.662Z,13.95
2023-01-02T04:22:03.309Z,13.92
2023-01-02T04:24:33.524Z,13.99
2023-01-02T04:27:07.352Z,13.90
2023-01-02T04:29:34.112Z,13.96
2023-01-02T04:32:03.650Z,13.96
2023-01-02T04:34:33.503Z,13.92
2023-01-02T04:37:00.115Z,13.83
2023-01-02T04:39:27.990Z,13.87
2023-01-02T04:41:55.371Z,13.83
2023-01-02T04:44:23.937Z,13.87
2023-01-02T04:46:50.491Z,13.79
2023-01-02T04:49:17.081Z,13.76
2023-01-02T04:51:43.791Z,13.83
2023-01-02T04:54:12.318Z,13.88
2023-01-02T04:56:39.045Z,13.84
2023-01-02T04:59:05.747Z,13.84
2023-01-02T05:01:32.532Z,13.74
2023-01-02T05:03:59.220Z,13.77
2023-01-02T05:06:25.812Z,13.83
2023-01-02T05:08:52.384Z,13.86
2023-01-02T05:11:20.488Z,13.96
2023-01-02T05:13:47.137Z,14.07
2023-01-02T05:16:13.937Z,14.03
2023-01-02T05:18:40.614Z,14.01
2023-01-02T05:21:28.523Z,14.04
2023-01-02T05:23:55.998Z,14.04
2023-01-02T05:26:23.695Z,14.09
2023-01-02T05:28:52.579Z,14.03
2023-01-02T05:31:19.710Z,14.05
2023-01-02T05:33:59.446Z,14.13
2023-01-02T05:36:27.353Z,14.09
2023-01-02T05:38:54.678Z,14.12
2023-01-02T05:41:22.383Z,14.06
2023-01-02T05:43:49.007Z,14.07
2023-01-02T05:46:20.699Z,13.97
2023-01-02T05:48:47.349Z,13.95
2023-01-02T05:51:15.987Z,14.01
2023-01-02T05:53:43.189Z,14.15
2023-01-02T05:56:12.779Z,14.08
2023-01-02T05:58:41.904Z,14.00
2023-01-02T06:01:14.324Z,14.04
2023-01-02T06:03:45.657Z,14.02
2023-01-02T06:06:13.276Z,14.03
2023-01-02T06:08:41.108Z,14.01
2023-01-02T06:11:08.336Z,14.01
2023-01-02T06:13:37.468Z,13.85
2023-01-02T06:16:05.750Z,13.91
2023-01-02T06:18:34.440Z,13.87
2023-01-02T06:21:06.814Z,13.94
2023-01-02T06:23:33.371Z,13.91
2023-01-02T06:26:14.589Z,13.88
2023-01-02T06:28:41.783Z,13.93
2023-01-02T06:31:11.873Z,13.96
2023-01-02T06:33:38.747Z,13.90
2023-01-02T06:36:10.009Z,13.86
2023-01-02T06:38:37.312Z,13.88
2023-01-02T06:41:05.439Z,13.88
2023-01-02T06:43:33.588Z,13.94
2023-01-02T06:46:05.388Z,13.97
2023-01-02T06:48:33.537Z,13.88
2023-01-02T06:51:00.502Z,13.95
2023-01-02T06:53:27.388Z,14.02
2023-01-02T06:55:58.597Z,14.09
2023-01-02T06:58:29.135Z,13.99
2023-01-02T07:00:55.746Z,14.14
2023-01-02T07:03:22.282Z,14.10
2023-01-02T07:05:48.957Z,14.19
2023-01-02T07:08:15.441Z,14.20
2023-01-02T07:10:41.947Z,14.26
2023-01-02T07:13:08.487Z,14.30
2023-01-02T07:15:35.022Z,14.19
2023-01-02T07:18:01.627Z,14.42
2023-01-02T07:20:28.446Z,14.38
2023-01-02T07:22:55.187Z,14.34
2023-01-02T07:25:22.177Z,14.43
2023-01-02T07:27:48.748Z,14.45
2023-01-02T07:30:15.502Z,14.44
2023-01-02T07:32:43.383Z,14.56
2023-01-02T07:35:11.238Z,14.56
2023-01-02T07:37:37.937Z,14.62
2023-01-02T07:40:05.122Z,14.71
2023-01-02T07:42:31.647Z,14.70
2023-01-02T07:44:58.221Z,14.63
2023-01-02T07:47:24.791Z,14.74
2023-01-02T07:49:51.306Z,14.70
2023-01-02T07:52:17.870Z,14.83
2023-01-02T07:54:44.374Z,14.80
2023-01-02T07:57:10.873Z,14.81
2023-01-02T07:59:37.402Z,14.81
2023-01-02T08:02:04.087Z,14.89
2023-01-02T08:04:30.724Z,14.91
2023-01-02T08:06:57.397Z,14.88
2023-01-02T08:09:23.956Z,14.98
2023-01-02T08:11:50.450Z,14.92
2023-01-02T08:14:23.086Z,14.95
2023-01-02T08:16:50.118Z,14.96
2023-01-02T08:19:16.752Z,14.85
2023-01-02T08:21:43.391Z,14.91
2023-01-02T08:24:09.942Z,14.98
2023-01-02T08:26:36.510Z,14.95
2023-01-02T08:29:03.175Z,14.98
2023-01-02T08:31:29.843Z,14.84
2023-01-02T08:33:56.387Z,14.85
2023-01-02T08:36:23.017Z,14.83
2023-01-02T08:38:49.504Z,14.81
2023-01-02T08:41:30.605Z,14.69
2023-01-02T08:43:59.201Z,14.70
2023-01-02T08:46:25.842Z,14.65
2023-01-02T08:48:52.505Z,14.60
2023-01-02T08:51:21.228Z,14.66
2023-01-02T08:53:47.887Z,14.70
2023-01-02T08:56:26.565Z,14.73
2023-01-02T08:58:55.799Z,14.84
2023-01-02T09:01:24.846Z,14.86
2023-01-02T09:03:52.465Z,14.74
2023-01-02T09:06:22.263Z,14.85
2023-01-02T09:08:49.385Z,14.91
2023-01-02T09:11:19.154Z,14.97
2023-01-02T09:13:45.831Z,15.02
2023-01-02T09:16:12.472Z,15.10
2023-01-02T09:18:40.022Z,14.93
2023-01-02T09:21:07.089Z,14.90
2023-01-02T09:23:34.112Z,14.90
2023-01-02T09:26:02.698Z,14.84
2023-01-02T09:28:30.347Z,14.80
2023-01-02T09:30:56.946Z,14.77
2023-01-02T09:33:23.511Z,14.74
2023-01-02T09:35:50.177Z,14.74
2023-01-02T09:38:17.812Z,14.72
2023-01-02T09:40:54.147Z,14.78
2023-01-02T09:43:46.617Z,14.91
2023-01-02T09:46:23.185Z,14.97
2023-01-02T09:48:49.830Z,15.14
2023-01-02T09:51:16.373Z,15.17
2023-01-02T09:53:43.146Z,15.23
2023-01-02T09:56:28.806Z,15.33
2023-01-02T09:59:16.259Z,15.73
2023-01-02T10:01:56.001Z,16.09
2023-01-02T10:04:43.327Z,16.37
2023-01-02T10:07:21.276Z,16.62
2023-01-02T10:09:58.492Z,16.51
2023-01-02T10:12:34.739Z,16.32
2023-01-02T10:15:06.318Z,16.23
2023-01-02T10:17:46.447Z,16.13
2023-01-02T10:20:26.109Z,16.10
2023-01-02T10:22:59.519Z,15.94
2023-01-02T10:26:06.630Z,15.90
2023-01-02T10:28:58.039Z,15.92
2023-01-02T10:32:03.976Z,15.92
2023-01-02T10:34:41.208Z,15.92
2023-01-02T10:37:16.271Z,15.91
2023-01-02T10:39:45.517Z,15.88
2023-01-02T10:42:14.855Z,15.94
2023-01-02T10:44:44.298Z,15.91
2023-01-02T10:47:19.701Z,16.05
2023-01-02T10:49:47.864Z,16.13
2023-01-02T10:52:25.898Z,16.01
2023-01-02T10:55:00.075Z,16.04
2023-01-02T10:57:45.551Z,15.89
2023-01-02T11:00:22.517Z,15.77
2023-01-02T11:02:57.088Z,15.62
2023-01-02T11:05:30.338Z,15.74
2023-01-02T11:07:58.224Z,15.77
2023-01-02T11:10:31.487Z,15.71
2023-01-02T11:13:10.099Z,15.78
2023-01-02T11:15:47.652Z,15.76
2023-01-02T11:18:29.618Z,15.87
2023-01-02T11:21:04.217Z,15.75
2023-01-02T11:23:36.511Z,15.80
2023-01-02T11:26:05.053Z,15.87
2023-01-02T11:28:35.340Z,16.07
2023-01-02T11:31:03.569Z,16.20
2023-01-02T11:33:32.866Z,16.46
2023-01-02T11:36:14.220Z,16.53
2023-01-02T11:38:55.197Z,16.62
2023-01-02T11:41:21.680Z,16.57
2023-01-02T11:43:55.768Z,16.49
2023-01-02T11:46:36.316Z,16.34
2023-01-02T11:49:17.794Z,16.32
2023-01-02T11:51:51.716Z,16.37
2023-01-02T11:54:23.701Z,16.53
2023-01-02T11:56:53.882Z,16.49
2023-01-02T11:59:36.468Z,16.57
2023-01-02T12:02:29.231Z,16.49
2023-01-02T12:04:55.996Z,16.38
2023-01-02T12:07:40.468Z,16.32
2023-01-02T12:10:25.447Z,16.44
2023-01-02T12:12:59.960Z,16.41
2023-01-02T12:15:56.920Z,16.30
2023-01-02T12:18:45.576Z,16.20
2023-01-02T12:21:21.219Z,16.13
2023-01-02T12:24:32.661Z,16.13
2023-01-02T12:27:19.711Z,16.16
2023-01-02T12:30:07.650Z,16.31
2023-01-02T12:32:49.862Z,16.26
2023-01-02T12:35:41.466Z,16.07
2023-01-02T12:38:11.876Z,15.94
2023-01-02T12:41:01.720Z,15.91
2023-01-02T12:43:53.110Z,15.87
2023-01-02T12:46:31.393Z,15.64
2023-01-02T12:49:26.316Z,15.62
2023-01-02T12:51:52.874Z,15.65
2023-01-02T12:54:47.777Z,15.47
2023-01-02T12:57:35.676Z,15.48
2023-01-02T13:00:20.954Z,15.53
2023-01-02T13:03:44.707Z,15.40
2023-01-02T13:06:45.815Z,15.29
2023-01-02T13:09:26.553Z,15.25
2023-01-02T13:12:10.936Z,15.25
2023-01-02T13:15:16.810Z,15.09
2023-01-02T13:18:28.352Z,14.91
2023-01-02T13:21:35.819Z,14.81
2023-01-02T13:24:04.138Z,14.74
2023-01-02T13:26:35.702Z,14.68
2023-01-02T13:29:25.832Z,14.47
2023-01-02T13:31:54.695Z,14.49
2023-01-02T13:34:26.569Z,14.41
2023-01-02T13:37:10.118Z,14.43
2023-01-02T13:39:51.003Z,14.38
2023-01-02T13:42:49.957Z,14.25
2023-01-02T13:45:23.475Z,14.15
2023-01-02T13:47:59.271Z,14.22
2023-01-02T13:50:32.682Z,14.20
2023-01-02T13:53:15.324Z,14.15
2023-01-02T13:55:41.907Z,14.01
2023-01-02T13:58:40.846Z,14.10
2023-01-02T14:01:22.728Z,14.00
2023-01-02T14:04:13.241Z,13.93
2023-01-02T14:06:50.077Z,13.99
2023-01-02T14:09:22.080Z,13.96
2023-01-02T14:12:01.291Z,13.86
2023-01-02T14:14:37.384Z,13.82
2023-01-02T14:17:23.272Z,13.85
2023-01-02T14:20:18.635Z,13.75
2023-01-02T14:22:54.852Z,13.78
2023-01-02T14:25:22.394Z,13.62
2023-01-02T14:27:56.258Z,13.74
2023-01-02T14:30:43.135Z,13.67
2023-01-02T14:33:16.981Z,13.60
2023-01-02T14:35:52.068Z,13.48
2023-01-02T14:38:25.513Z,13.48
2023-01-02T14:40:53.132Z,13.54
2023-01-02T14:43:31.573Z,13.51
2023-01-02T14:46:16.132Z,13.55
2023-01-02T14:49:00.500Z,13.49
2023-01-02T14:51:47.977Z,13.47
2023-01-02T14:54:17.229Z,13.48
2023-01-02T14:56:50.972Z,13.53
2023-01-02T14:59:29.194Z,13.54
2023-01-02T15:02:01.301Z,13.41
2023-01-02T15:04:53.019Z,13.33
2023-01-02T15:07:19.483Z,13.37
2023-01-02T15:09:54.047Z,13.37
2023-01-02T15:12:47.129Z,13.43
2023-01-02T15:15:16.082Z,13.26
2023-01-02T15:17:45.988Z,13.27
2023-01-02T15:20:21.996Z,13.23
2023-01-02T15:22:49.167Z,13.16
2023-01-02T15:25:31.350Z,13.25
2023-01-02T15:27:57.952Z,13.06
2023-01-02T15:30:34.616Z,13.01
2023-01-02T15:33:01.252Z,13.03
2023-01-02T15:35:32.755Z,12.96
2023-01-02T15:37:59.401Z,12.87
2023-01-02T15:40:28.844Z,12.82
2023-01-02T15:43:17.302Z,12.91
2023-01-02T15:45:49.276Z,12.98
2023-01-02T15:48:16.046Z,12.83
2023-01-02T15:50:43.009Z,12.76
2023-01-02T15:53:23.398Z,12.79
2023-01-02T15:55:50.327Z,12.73
2023-01-02T15:58:17.111Z,12.81
2023-01-02T16:00:45.610Z,12.84
2023-01-02T16:04:00.848Z,12.67
2023-01-02T16:06:31.865Z,12.69
2023-01-02T16:09:00.881Z,12.59
2023-01-02T16:11:28.277Z,12.60
2023-01-02T16:14:19.134Z,12.60
2023-01-02T16:17:13.195Z,12.75
2023-01-02T16:19:57.941Z,12.81
2023-01-02T16:22:44.075Z,12.73
2023-01-02T16:25:13.643Z,12.70
2023-01-02T16:28:34.894Z,12.79
2023-01-02T16:31:17.362Z,12.70
2023-01-02T16:33:45.968Z,12.62
2023-01-02T16:36:15.581Z,12.59
2023-01-02T16:39:02.491Z,12.46
2023-01-02T16:41:35.615Z,12.44
2023-01-02T16:44:03.969Z,12.36
2023-01-02T16:46:31.275Z,12.33
2023-01-02T16:49:05.017Z,12.37
2023-01-02T16:51:32.787Z,12.38
2023-01-02T16:53:59.627Z,12.33
2023-01-02T16:56:26.259Z,12.33
2023-01-02T16:58:52.947Z,12.28
2023-01-02T17:01:21.867Z,12.32
2023-01-02T17:03:48.702Z,12.35
2023-01-02T17:06:18.362Z,12.32
2023-01-02T17:08:45.233Z,12.29
2023-01-02T17:11:15.808Z,12.30
2023-01-02T17:13:42.280Z,12.28
2023-01-02T17:16:08.992Z,12.28
2023-01-02T17:18:35.805Z,12.09
2023-01-02T17:21:02.450Z,11.78
2023-01-02T17:23:29.157Z,11.58
2023-01-02T17:25:55.743Z,11.04
2023-01-02T17:28:22.325Z,10.72
2023-01-02T17:30:49.349Z,10.65
2023-01-02T17:33:16.990Z,10.22
2023-01-02T17:35:48.343Z,10.19
2023-01-02T17:38:15.510Z,10.27
2023-01-02T17:40:42.220Z,10.23
2023-01-02T17:43:09.303Z,10.17
2023-01-02T17:45:36.120Z,9.98
2023-01-02T17:48:10.519Z,9.95
2023-01-02T17:50:38.825Z,9.87
2023-01-02T17:53:05.469Z,9.80
2023-01-02T17:55:32.237Z,9.76
2023-01-02T17:58:00.916Z,9.78
2023-01-02T18:00:27.783Z,9.76
2023-01-02T18:02:54.566Z,9.69
2023-01-02T18:05:22.417Z,9.66
2023-01-02T18:07:49.003Z,9.66
2023-01-02T18:10:20.063Z,9.59
2023-01-02T18:12:47.878Z,9.49
2023-01-02T18:15:16.016Z,9.51
2023-01-02T18:17:43.235Z,9.51
2023-01-02T18:20:12.957Z,9.45
2023-01-02T18:22:46.021Z,9.57
2023-01-02T18:25:21.745Z,9.49
2023-01-02T18:27:48.606Z,9.51
2023-01-02T18:30:22.073Z,9.59
2023-01-02T18:32:50.166Z,9.59
2023-01-02T18:38:18.872Z,9.49
2023-01-02T18:40:46.166Z,9.50
2023-01-02T18:43:24.738Z,9.49
2023-01-02T18:45:54.889Z,9.51
2023-01-02T18:48:22.631Z,9.54
2023-01-02T18:50:57.074Z,9.49
2023-01-02T18:53:29.786Z,9.51
2023-01-02T18:56:02.954Z,9.53
2023-01-02T18:58:44.240Z,9.51
2023-01-02T19:01:26.394Z,9.51
2023-01-02T19:04:00.539Z,9.49
2023-01-02T19:06:28.317Z,9.51
2023-01-02T19:09:06.406Z,9.45
2023-01-02T19:11:52.904Z,9.39
2023-01-02T19:14:31.554Z,9.36
2023-01-02T19:17:20.016Z,9.40
2023-01-02T19:19:46.928Z,9.40
2023-01-02T19:22:17.437Z,9.43
2023-01-02T19:24:44.390Z,9.40
2023-01-02T19:27:39.904Z,9.34
2023-01-02T19:30:30.221Z,9.29
2023-01-02T19:32:57.857Z,9.24
2023-01-02T19:35:38.716Z,9.20
2023-01-02T19:38:38.014Z,9.09
2023-01-02T19:41:04.638Z,9.15
2023-01-02T19:43:31.199Z,9.08
2023-01-02T19:45:57.843Z,9.09
2023-01-02T19:48:24.464Z,9.22
2023-01-02T19:50:51.067Z,9.26
2023-01-02T19:53:17.639Z,9.29
2023-01-02T19:55:44.220Z,9.45
2023-01-02T19:58:10.855Z,9.44
2023-01-02T20:00:37.491Z,9.40
2023-01-02T20:03:04.652Z,9.37
2023-01-02T20:05:31.387Z,9.40
2023-01-02T20:07:59.562Z,9.41
2023-01-02T20:10:26.593Z,9.41
2023-01-02T20:12:53.760Z,9.53
2023-01-02T20:15:26.433Z,9.46
2023-01-02T20:17:54.513Z,9.34
2023-01-02T20:20:24.037Z,9.36
2023-01-02T20:22:51.697Z,9.25
2023-01-02T20:25:21.229Z,9.15
2023-01-02T20:27:47.879Z,9.10
2023-01-02T20:30:20.317Z,9.08
2023-01-02T20:32:48.859Z,9.13
2023-01-02T20:35:15.576Z,9.06
2023-01-02T20:37:42.282Z,9.04
2023-01-02T20:40:09.500Z,9.05
2023-01-02T20:42:37.144Z,8.99
2023-01-02T20:45:04.898Z,8.99
2023-01-02T20:47:31.565Z,8.96
2023-01-02T20:49:58.249Z,8.94
2023-01-02T20:52:24.843Z,9.07
2023-01-02T20:54:51.443Z,8.95
2023-01-02T20:57:17.974Z,8.90
2023-01-02T20:59:44.659Z,8.88
2023-01-02T21:02:11.563Z,8.80
2023-01-02T21:04:38.513Z,8.83
2023-01-02T21:07:06.051Z,8.84
2023-01-02T21:09:33.156Z,8.68
2023-01-02T21:11:59.896Z,8.69
2023-01-02T21:14:26.452Z,8.67
2023-01-02T21:16:54.704Z,8.60
2023-01-02T21:19:21.400Z,8.66
2023-01-02T21:21:47.965Z,8.56
2023-01-02T21:24:14.552Z,8.54
2023-01-02T21:26:41.131Z,8.46
2023-01-02T21:29:07.852Z,8.41
2023-01-02T21:31:34.562Z,8.33
2023-01-02T21:34:01.235Z,8.37
2023-01-02T21:36:28.390Z,8.37
2023-01-02T21:38:55.726Z,8.35
2023-01-02T21:41:41.138Z,8.39
2023-01-02T21:44:07.736Z,8.24
2023-01-02T21:46:34.353Z,8.27
2023-01-02T21:49:00.941Z,8.25
2023-01-02T21:51:32.683Z,8.19
2023-01-02T21:54:00.036Z,8.05
2023-01-02T21:56:26.814Z,7.95
2023-01-02T21:58:53.424Z,7.92
2023-01-02T22:01:20.384Z,7.91
2023-01-02T22:03:47.145Z,7.86
2023-01-02T22:06:13.704Z,7.83
2023-01-02T22:08:40.261Z,7.85
2023-01-02T22:11:25.364Z,7.77
2023-01-02T22:13:52.080Z,7.76
2023-01-02T22:16:18.707Z,7.76
2023-01-02T22:18:45.506Z,7.71
2023-01-02T22:21:12.055Z,7.75
2023-01-02T22:23:38.728Z,7.71
2023-01-02T22:26:05.514Z,7.61
2023-01-02T22:28:32.129Z,7.61
2023-01-02T22:30:58.872Z,7.59
2023-01-02T22:33:25.582Z,7.67
2023-01-02T22:35:52.730Z,7.59
2023-01-02T22:38:19.165Z,7.50
2023-01-02T22:40:46.224Z,7.48
2023-01-02T22:43:17.950Z,7.63
2023-01-02T22:45:53.103Z,7.73
2023-01-02T22:48:23.659Z,7.74
2023-01-02T22:50:53.746Z,7.84
2023-01-02T22:53:24.753Z,7.85
2023-01-02T22:55:51.477Z,7.84
2023-01-02T22:58:19.124Z,7.86
2023-01-02T23:00:47.991Z,7.78
2023-01-02T23:03:16.377Z,7.84
2023-01-02T23:05:43.622Z,7.84
2023-01-02T23:08:10.540Z,7.94
2023-01-02T23:10:37.523Z,7.94
2023-01-02T23:13:04.278Z,8.02
2023-01-02T23:15:30.792Z,7.94
2023-01-02T23:18:15.755Z,7.99
2023-01-02T23:20:42.358Z,8.02
2023-01-02T23:23:09.049Z,8.11
2023-01-02T23:25:40.697Z,8.11
2023-01-02T23:28:07.258Z,8.15
2023-01-02T23:30:33.833Z,8.14
2023-01-02T23:33:00.465Z,8.21
2023-01-02T23:35:27.090Z,8.21
2023-01-02T23:37:53.666Z,8.26
2023-01-02T23:40:20.225Z,8.23
2023-01-02T23:42:46.803Z,8.20
2023-01-02T23:45:13.379Z,8.14
2023-01-02T23:47:40.019Z,8.04
2023-01-02T23:50:06.904Z,8.11
2023-01-02T23:52:33.596Z,8.09
2023-01-02T23:55:00.170Z,8.10
2023-01-02T23:57:26.761Z,8.12
2023-01-02T23:59:53.418Z,8.09
